• Join FlightAware (Why Join?)
  • Login
  • US Flag 
10:40AM EDT


 

Airport Tracker/Info


-or-


 

Live Flight TrackerFlight Track Log ✈ AAL1398 ✈ 17-Apr-2013 ✈ MDSD / SDQ - KMIA

Flight Track Log - Related Links

Times and Time Zones

All times are in EDT time to prevent confusion due to time zone crossing. See the AAL1398 flight status page for this flight to view local times or setup timezone preferences in your user account.

Time Position Orientation Groundspeed Altitude Reporting Facility
EDT Latitude Longitude Course Direction KTS MPH feet Rate Location/Type
01:03PM 18.6719 -69.8408 329° Northwest  Level FlightAware Approximate
01:04PM 18.7618 -69.8969 329° Northwest  Level FlightAware Approximate
01:05PM 18.8472 -69.9604 325° Northwest  Level FlightAware Approximate
01:06PM 18.9323 -70.0242 325° Northwest  Level FlightAware Approximate
01:07PM 19.0175 -70.0881 325° Northwest  Level FlightAware Approximate
01:08PM 19.1027 -70.1519 325° Northwest  Level FlightAware Approximate
01:09PM 19.1887 -70.2147 328° Northwest  Level FlightAware Approximate
01:10PM 19.2770 -70.2736 328° Northwest  Level FlightAware Approximate
01:11PM 19.3626 -70.3367 323° Northwest  Level FlightAware Approximate
01:12PM 19.4460 -70.4034 323° Northwest  Level FlightAware Approximate
01:12PM 19.1725 -70.2103 325° Northwest 453 521 28,100  Level Miami Center
01:13PM 19.5304 -70.4686 325° Northwest  Level FlightAware Approximate
01:13PM 19.2667 -70.2717 328° Northwest 423 487 29,700  Level Miami Center
01:14PM 19.6157 -70.5325 325° Northwest  Level FlightAware Approximate
01:14PM 19.3592 -70.3419 324° Northwest 417 480 31,300  Level Miami Center
01:15PM 19.7029 -70.5931 335° Northwest  Level FlightAware Approximate
01:15PM 19.4536 -70.4122 325° Northwest 417 480 33,100  Level Miami Center
01:16PM 19.7907 -70.6514 325° Northwest  Level FlightAware Approximate
01:16PM 19.5481 -70.4803 326° Northwest 417 480 34,400  Level Miami Center
01:17PM 19.8760 -70.7153 325° Northwest  Level FlightAware Approximate
01:17PM 19.6425 -70.5464 327° Northwest 417 480 35,900  Level Miami Center
01:18PM 19.7347 -70.6147 325° Northwest 412 474 36,100 60 Climbing Miami Center
01:19PM 19.8292 -70.6833 326° Northwest 412 474 36,100  Level Miami Center
01:20PM 19.9214 -70.7519 325° Northwest 417 480 36,100  Level Miami Center
01:21PM 20.0114 -70.8206 324° Northwest 411 473 36,100  Level Miami Center
01:22PM 20.1036 -70.8872 326° Northwest 411 473 36,100  Level Miami Center
01:23PM 20.1981 -70.9583 325° Northwest 416 479 36,100  Level Miami Center
01:24PM 20.2881 -71.0272 324° Northwest 416 479 36,100  Level Miami Center
01:25PM 20.3844 -71.0961 326° Northwest 416 479 36,100  Level Miami Center
01:26PM 20.4650 -71.1922 312° West 406 467 36,100  Level Miami Center
01:27PM 20.5289 -71.2869 306° West 400 460 36,100  Level Miami Center
01:28PM 20.5950 -71.3861 305° West 406 467 36,100  Level Miami Center
01:29PM 20.6589 -71.4833 305° West 406 467 36,100  Level Miami Center
01:30PM 20.7247 -71.5783 307° West 406 467 36,100  Level Miami Center
01:31PM 20.7886 -71.6756 305° West 406 467 36,100  Level Miami Center
01:32PM 20.8522 -71.7731 305° West 406 467 36,100  Level Miami Center
01:33PM 20.9181 -71.8706 306° West 406 467 36,100  Level Miami Center
01:34PM 20.9836 -71.9703 305° West 406 467 36,100  Level Miami Center
01:35PM 21.0472 -72.0678 305° West 406 467 36,100  Level Miami Center
01:36PM 21.1128 -72.1633 306° West 406 467 36,100  Level Miami Center
01:37PM 21.1783 -72.2633 305° West 406 467 36,100  Level Miami Center
01:38PM 21.2439 -72.3614 306° West 406 467 36,100  Level Miami Center
01:39PM 21.3072 -72.4550 306° West 406 467 36,100  Level Miami Center
01:40PM 21.3725 -72.5553 305° West 406 467 36,100  Level Miami Center
01:41PM 21.4378 -72.6511 306° West 406 467 36,100  Level Miami Center
01:42PM 21.4989 -72.7497 304° West 406 467 36,100  Level Miami Center
01:43PM 21.5642 -72.8481 306° West 406 467 36,100  Level Miami Center
01:44PM 21.6272 -72.9467 305° West 406 467 36,100  Level Miami Center
01:45PM 21.6881 -73.0431 304° West 406 467 36,100  Level Miami Center
01:46PM 21.7511 -73.1419 304° West 406 467 36,100  Level Miami Center
01:47PM 21.8119 -73.2386 304° West 406 467 36,100  Level Miami Center
01:48PM 21.8747 -73.3353 305° West 406 467 36,100  Level Miami Center
01:49PM 21.9394 -73.4319 306° West 406 467 36,100  Level Miami Center
01:50PM 22.0003 -73.5311 304° West 406 467 36,100  Level Miami Center
01:51PM 22.0650 -73.6281 306° West 401 461 36,100  Level Miami Center
01:52PM 22.1169 -73.7142 303° West 396 456 36,100  Level Miami Center
01:53PM 22.1772 -73.8114 304° West 389 448 36,100  Level Miami Center
01:54PM 22.2378 -73.9108 303° West 389 448 36,100  Level Miami Center
01:55PM 22.3042 -74.0058 307° West 394 453 36,100  Level Miami Center
01:56PM 22.3667 -74.1033 305° West 394 453 36,100  Level Miami Center
01:57PM 22.4247 -74.2011 303° West 394 453 36,100  Level Miami Center
01:58PM 22.4892 -74.2986 306° West 394 453 36,100  Level Miami Center
01:59PM 22.5514 -74.3986 304° West 394 453 36,100  Level Miami Center
02:00PM 22.6114 -74.4986 303° West 394 453 36,100  Level Miami Center
02:01PM 22.6756 -74.5967 305° West 394 453 36,100  Level Miami Center
02:02PM 22.7375 -74.6944 304° West 394 453 36,100  Level Miami Center
02:03PM 22.8017 -74.7903 306° West 394 453 36,100  Level Miami Center
02:04PM 22.8636 -74.8886 304° West 394 453 36,100  Level Miami Center
02:05PM 22.9253 -74.9869 304° West 394 453 36,100  Level Miami Center
02:06PM 22.9872 -75.0875 304° West 394 453 36,100  Level Miami Center
02:07PM 23.0489 -75.1858 304° West 394 453 36,100  Level Miami Center
02:08PM 23.1083 -75.2822 304° West 394 453 36,100  Level Miami Center
02:09PM 23.1700 -75.3811 304° West 394 453 36,100  Level Miami Center
02:10PM 23.2294 -75.4797 303° West 394 453 36,100  Level Miami Center
02:11PM 23.2908 -75.5764 305° West 394 453 36,100  Level Miami Center
02:12PM 23.3525 -75.6797 303° West 389 448 36,100  Level Miami Center
02:13PM 23.4094 -75.7744 303° West 401 461 36,100  Level Miami Center
02:14PM 23.4647 -75.8758 301° West 401 461 36,100  Level Miami Center
02:15PM 23.5239 -75.9933 299° West 401 461 36,100  Level Miami Center
02:16PM 23.5703 -76.0836 299° West 396 456 36,100  Level Miami Center
02:17PM 23.6253 -76.1853 301° West 389 448 36,100  Level Miami Center
02:18PM 23.6778 -76.2894 299° West 389 448 36,100  Level Miami Center
02:19PM 23.7325 -76.3914 300° West 389 448 36,100  Level Miami Center
02:20PM 23.7872 -76.4978 299° West 394 453 36,100  Level Miami Center
02:21PM 23.8397 -76.6000 299° West 394 453 36,100  Level Miami Center
02:22PM 23.8942 -76.7044 300° West 394 453 36,100  Level Miami Center
02:23PM 23.9486 -76.8111 299° West 394 453 36,100  Level Miami Center
02:24PM 24.0050 -76.9225 299° West 394 453 36,100  Level Miami Center
02:25PM 24.0572 -77.0294 298° West 394 453 36,100  Level Miami Center
02:26PM 24.1114 -77.1367 299° West 394 453 36,100  Level Miami Center
02:27PM 24.1653 -77.2439 299° West 399 459 36,100  Level Miami Center
02:28PM 24.2194 -77.3511 299° West 399 459 36,100  Level Miami Center
02:29PM 24.2733 -77.4539 300° West 399 459 36,100  Level Miami Center
02:30PM 24.3253 -77.5636 297° West 399 459 36,100  Level Miami Center
02:31PM 24.3769 -77.6664 299° West 399 459 36,100  Level Miami Center
02:32PM 24.4306 -77.7742 299° West 399 459 36,100  Level Miami Center
02:33PM 24.4842 -77.8794 299° West 399 459 36,100  Level Miami Center
02:34PM 24.5358 -77.9828 299° West 399 459 36,100  Level Miami Center
02:35PM 24.5894 -78.0883 299° West 399 459 36,100  Level Miami Center
02:36PM 24.6367 -78.1825 299° West 399 459 36,100  Level Miami Center
02:37PM 24.6878 -78.2883 298° West 399 459 36,100  Level Miami Center
02:38PM 24.7411 -78.3919 300° West 394 453 36,100  Level Miami Center
02:39PM 24.7903 -78.4978 297° West 394 453 36,100 -960 Level Miami Center
02:40PM 24.8411 -78.6017 298° West 394 453 34,200 -2,460 Descending Miami Center
02:41PM 24.8964 -78.7122 299° West 400 460 31,200 -2,880 Descending Miami Center
02:42PM 24.9556 -78.8278 299° West 421 484 28,500 -2,400 Descending Miami Center
02:43PM 25.0164 -78.9594 297° West 438 504 26,400 -2,640 Descending Miami Center
02:44PM 25.0692 -79.0636 299° West 438 504 23,300 -2,820 Descending Miami Center
02:45PM 25.1258 -79.1794 298° West 438 504 20,800 -2,460 Descending Miami Center
02:46PM 25.1783 -79.2928 297° West 432 497 18,400 -2,340 Descending Miami Center
02:47PM 25.2331 -79.3997 300° West 414 476 16,200 -2,160 Descending Miami Center
02:48PM 25.2833 -79.5017 299° West 396 456 14,100 -2,160 Descending Miami Center
02:49PM 25.3297 -79.6017 297° West 378 435 12,300 -1,200 Descending Miami Center
02:50PM 25.3717 -79.6944 297° West 353 406 12,000 -240 Descending Miami Center
02:51PM 25.4244 -79.7831 303° West 338 389 11,900 -360 Descending Miami Center
02:52PM 25.4833 -79.8650 309° West 344 396 11,200 -840 Descending Miami Center
02:53PM 25.5339 -79.9492 304° West 331 381 10,300 -1,140 Descending Miami Center
02:53PM 25.5461 -79.9633 314° West 339 390 10,100 -1,020 Descending Miami Center
02:54PM 25.5864 -80.0311 303° West 292 336 9,200 -1,140 Descending Miami Center
02:55PM 25.6328 -80.1039 305° West 289 333 8,000 -600 Descending Miami Center
02:56PM 25.6686 -80.1808 297° West 282 325 8,000  Level Miami Center
02:57PM 25.6900 -80.2575 287° West 273 314 8,000 -600 Level Miami Center
02:58PM 25.7069 -80.3294 285° West 228 262 6,900 -1,560 Descending Miami Center
02:59PM 25.7031 -80.4078 267° West 227 261 4,700 -1,380 Descending Miami Center
03:00PM 25.6994 -80.4769 267° West 214 246 4,000 -780 Descending Miami Center
03:01PM 25.7192 -80.5167 299° West 181 208 3,300 -600 Descending Miami Center
03:02PM 25.7592 -80.5064 13° North 183 211 3,000 -360 Descending Miami Center